Aviation Digital Data Service (ADDS)

Output produced by METARs form (0507 UTC 21 January 2019)
found at http://www.aviationweather.gov/metar/data/
 
Forecast for: LCLK (LARNACA/LARNAX A, CY)
Text: TAF LCLK 202330Z 2100/2124 35009KT 9999 FEW025
Forecast period: 0000 to 0600 UTC 21 January 2019
Forecast type: FROM: standard forecast or significant change
Winds: from the N (350 degrees) at 10 MPH (9 knots; 4.6 m/s)
Visibility: 6 or more miles 10+ km)
Ceiling: at least 12,000 feet AGL
Clouds: few clouds at 2500 feet AGL
Weather: no significant weather forecast for this period
Text: BECMG 2106/2110 05011KT
Forecast period: 0600 to 1600 UTC 21 January 2019
Forecast type: BECOMING: Conditions expected to become as follows by 1000 UTC 21 January 2019
Winds: from the NE (50 degrees) at 13 MPH (11 knots; 5.7 m/s)
Visibility: 6 or more miles 10+ km)
Ceiling: at least 12,000 feet AGL
Clouds: few clouds at 2500 feet AGL
Weather: no significant weather forecast for this period
Text: BECMG 2116/2120 33007KT
Forecast period: 1600 UTC 21 January 2019 to 0000 UTC 22 January 2019
Forecast type: BECOMING: Conditions expected to become as follows by 2000 UTC 21 January 2019
Winds: from the NNW (330 degrees) at 8 MPH (7 knots; 3.6 m/s)
Visibility: 6 or more miles 10+ km)
Ceiling: at least 12,000 feet AGL
Clouds: few clouds at 2500 feet AGL
Weather: no significant weather forecast for this period